Time;durP1;ratioP1;P1;durP2;ratioP2;P2;SDS_P1;SDS_P2;PMS_P1;PMS_P2;Temp;Humidity;BMP_temperature;BMP_pressure;BME280_temperature;BME280_humidity;BME280_pressure;Samples;Min_cycle;Max_cycle;Signal;HPM_P1;HPM_P2
2022/05/12 00:00:16;;;;;;;630.93;603.43;;;14.90;99.90;;;;;;4997280;28;20501;-79
2022/05/12 00:02:43;;;;;;;637.53;607.40;;;15.00;99.90;;;;;;4959281;29;20459;-79
2022/05/12 00:05:12;;;;;;;676.77;644.33;;;14.90;99.90;;;;;;4959426;28;20476;-79
2022/05/12 00:07:39;;;;;;;585.00;560.73;;;15.00;99.90;;;;;;4996761;28;20446;-79
2022/05/12 00:10:09;;;;;;;612.37;584.13;;;14.90;99.90;;;;;;4997539;28;20454;-79
2022/05/12 00:12:36;;;;;;;716.10;677.53;;;14.90;99.90;;;;;;4979531;28;20451;-79
2022/05/12 00:15:05;;;;;;;639.70;609.17;;;14.80;99.90;;;;;;4979271;28;20578;-79
2022/05/12 00:17:35;;;;;;;574.03;549.63;;;14.90;99.90;;;;;;4996068;28;20508;-79
2022/05/12 00:20:02;;;;;;;578.97;554.03;;;14.90;99.90;;;;;;4998115;28;20454;-79
2022/05/12 00:22:30;;;;;;;643.10;611.63;;;15.00;99.90;;;;;;4981632;28;20457;-80
2022/05/12 00:24:58;;;;;;;647.07;614.90;;;14.90;99.90;;;;;;4985087;28;20466;-79
2022/05/12 00:27:25;;;;;;;664.27;629.17;;;14.90;99.90;;;;;;4997053;28;20458;-79
2022/05/12 00:29:54;;;;;;;705.40;664.33;;;14.90;99.90;;;;;;4991374;28;20451;-79
2022/05/12 00:32:20;;;;;;;612.37;582.27;;;14.90;99.90;;;;;;4979160;28;20459;-80
2022/05/12 00:34:47;;;;;;;742.97;697.50;;;15.00;99.90;;;;;;4982292;28;20474;-79
2022/05/12 00:37:14;;;;;;;707.47;666.17;;;14.90;99.90;;;;;;4998448;28;20461;-79
2022/05/12 00:39:42;;;;;;;672.33;637.33;;;15.00;99.90;;;;;;4994068;28;20467;-79
2022/05/12 00:42:09;;;;;;;627.30;599.10;;;15.00;99.90;;;;;;4978749;28;20458;-80
2022/05/12 00:44:37;;;;;;;632.80;601.93;;;15.10;99.90;;;;;;4996897;28;20481;-79
2022/05/12 00:47:03;;;;;;;676.70;641.93;;;15.10;99.90;;;;;;4981443;28;20456;-80
2022/05/12 00:49:40;;;;;;;594.37;567.80;;;15.10;99.90;;;;;;4977707;28;20467;-79
2022/05/12 00:52:10;;;;;;;739.30;695.70;;;15.10;99.90;;;;;;4978413;28;20482;-79
2022/05/12 00:54:42;;;;;;;646.47;618.57;;;15.00;99.90;;;;;;4978348;28;20482;-79
2022/05/12 00:57:13;;;;;;;683.77;650.73;;;14.90;99.90;;;;;;4992851;28;20461;-79
2022/05/12 00:59:43;;;;;;;661.73;630.73;;;14.80;99.90;;;;;;4996842;28;20453;-79
2022/05/12 01:02:14;;;;;;;677.43;645.17;;;14.70;99.90;;;;;;4996675;28;20528;-79
2022/05/12 01:04:42;;;;;;;615.63;590.27;;;14.60;99.90;;;;;;4996556;28;20474;-79
2022/05/12 01:07:09;;;;;;;645.70;619.17;;;14.60;99.90;;;;;;4981744;28;20451;-79
2022/05/12 01:09:36;;;;;;;281.13;272.53;;;14.60;99.90;;;;;;4976137;28;21018;-79
2022/05/12 01:12:04;;;;;;;199.77;193.07;;;14.60;99.90;;;;;;4989396;28;20955;-79
2022/05/12 01:14:32;;;;;;;333.60;323.60;;;14.60;99.90;;;;;;4995640;28;21015;-79
2022/05/12 01:17:04;;;;;;;213.33;206.40;;;14.60;99.90;;;;;;4981732;28;20485;-79
2022/05/12 01:19:32;;;;;;;161.10;155.93;;;14.50;99.90;;;;;;4973979;28;20462;-78
2022/05/12 01:22:00;;;;;;;300.10;290.50;;;14.40;99.90;;;;;;4986062;28;20450;-78
2022/05/12 01:24:33;;;;;;;344.67;333.70;;;14.20;99.90;;;;;;4991916;28;20474;-78
2022/05/12 01:27:18;;;;;;;352.10;340.80;;;14.10;99.90;;;;;;4993674;28;20454;-78
2022/05/12 01:29:45;;;;;;;342.07;331.87;;;14.00;99.90;;;;;;4953969;29;20704;-78
2022/05/12 01:32:12;;;;;;;389.23;376.30;;;13.90;99.90;;;;;;4954686;28;20464;-78
2022/05/12 01:34:39;;;;;;;502.13;484.30;;;13.90;99.90;;;;;;4993168;28;20474;-78
2022/05/12 01:37:06;;;;;;;590.33;567.73;;;13.70;99.90;;;;;;4992320;28;20477;-78
2022/05/12 01:39:35;;;;;;;676.43;647.77;;;13.60;99.90;;;;;;4992506;28;20534;-77
2022/05/12 01:42:02;;;;;;;597.10;574.23;;;13.50;99.90;;;;;;4977991;28;20451;-78
2022/05/12 01:44:30;;;;;;;509.90;491.10;;;13.50;99.90;;;;;;4974349;28;20490;-78
2022/05/12 01:46:58;;;;;;;633.37;608.17;;;13.40;99.90;;;;;;4988139;28;20460;-78
2022/05/12 01:49:25;;;;;;;612.10;588.03;;;13.40;99.90;;;;;;4992812;28;20458;-78
2022/05/12 01:51:53;;;;;;;648.47;621.57;;;13.40;99.90;;;;;;4979919;28;20455;-78
2022/05/12 01:54:20;;;;;;;590.17;566.60;;;13.30;99.90;;;;;;4973793;28;20995;-78
2022/05/12 01:56:48;;;;;;;679.07;648.37;;;13.20;99.90;;;;;;4974881;28;20479;-78
2022/05/12 01:59:15;;;;;;;747.73;707.27;;;13.10;99.90;;;;;;4972589;28;20461;-78
2022/05/12 02:01:42;;;;;;;768.30;721.30;;;13.00;99.90;;;;;;4973993;28;20814;-78
2022/05/12 02:04:11;;;;;;;763.60;715.50;;;13.00;99.90;;;;;;4973599;28;20475;-79
2022/05/12 02:06:38;;;;;;;753.93;706.07;;;12.80;99.90;;;;;;4991710;28;20458;-78
2022/05/12 02:09:05;;;;;;;755.23;703.80;;;12.80;99.90;;;;;;4992001;28;20465;-77
2022/05/12 02:11:33;;;;;;;762.17;711.10;;;12.80;99.90;;;;;;4974113;28;20837;-78
2022/05/12 02:14:01;;;;;;;757.60;710.03;;;12.80;99.90;;;;;;4988538;28;20481;-79
2022/05/12 02:16:30;;;;;;;741.83;697.57;;;12.70;99.90;;;;;;4992611;28;20518;-78
2022/05/12 02:18:57;;;;;;;764.03;712.13;;;12.60;99.90;;;;;;4986998;28;20509;-78
2022/05/12 02:21:24;;;;;;;766.23;714.33;;;12.60;99.90;;;;;;4985243;28;20518;-78
2022/05/12 02:23:50;;;;;;;765.93;712.77;;;12.50;99.90;;;;;;4978057;28;20455;-80
2022/05/12 02:26:18;;;;;;;757.63;704.47;;;12.40;99.90;;;;;;4977326;28;20877;-80
2022/05/12 02:28:44;;;;;;;766.27;711.80;;;12.50;99.90;;;;;;4976078;28;20841;-80
2022/05/12 02:31:13;;;;;;;765.80;713.07;;;12.40;99.90;;;;;;4986974;28;20473;-80
2022/05/12 02:33:39;;;;;;;765.80;713.20;;;12.30;99.90;;;;;;4995894;28;20838;-80
2022/05/12 02:36:07;;;;;;;772.93;719.60;;;12.20;99.90;;;;;;4990501;28;20475;-80
2022/05/12 02:38:34;;;;;;;761.53;704.27;;;12.10;99.90;;;;;;4989597;28;20454;-77
2022/05/12 02:41:00;;;;;;;771.50;712.20;;;12.10;99.90;;;;;;4993509;28;21029;-77
2022/05/12 02:43:29;;;;;;;768.80;708.10;;;12.00;99.90;;;;;;4988477;28;20462;-79
2022/05/12 02:45:57;;;;;;;767.23;710.17;;;11.90;99.90;;;;;;4984024;28;20561;-78
2022/05/12 02:48:28;;;;;;;778.57;718.77;;;11.80;99.90;;;;;;4997500;28;20465;-79
2022/05/12 02:50:55;;;;;;;790.03;727.47;;;11.70;99.90;;;;;;4997190;28;20975;-78
2022/05/12 02:53:22;;;;;;;804.47;735.77;;;11.60;99.90;;;;;;4981259;28;20458;-78
2022/05/12 02:55:49;;;;;;;796.97;730.57;;;11.50;99.90;;;;;;4978643;28;20483;-79
2022/05/12 02:58:16;;;;;;;817.07;744.80;;;11.40;99.90;;;;;;4961170;29;20464;-78
2022/05/12 03:00:46;;;;;;;817.97;745.27;;;11.40;99.90;;;;;;4961517;29;20467;-80
2022/05/12 03:03:13;;;;;;;832.10;757.47;;;11.40;99.90;;;;;;4990240;28;20451;-80
2022/05/12 03:05:42;;;;;;;818.80;747.30;;;11.30;99.90;;;;;;4980922;28;20861;-80
2022/05/12 03:08:10;;;;;;;806.50;735.93;;;11.30;99.90;;;;;;4980548;28;20455;-78
2022/05/12 03:10:37;;;;;;;824.07;749.77;;;11.20;99.90;;;;;;4978858;28;20459;-80
2022/05/12 03:13:05;;;;;;;799.23;729.67;;;11.10;99.90;;;;;;4996096;28;20984;-79
2022/05/12 03:15:32;;;;;;;794.77;725.60;;;10.90;99.90;;;;;;4993407;28;20475;-80
2022/05/12 03:17:59;;;;;;;805.83;733.07;;;10.80;99.90;;;;;;4991700;28;20461;-80
2022/05/12 03:20:29;;;;;;;806.13;728.43;;;10.80;99.90;;;;;;4979809;28;20454;-79
2022/05/12 03:22:57;;;;;;;794.90;720.00;;;10.70;99.90;;;;;;4981727;28;20447;-80
2022/05/12 03:25:23;;;;;;;791.03;716.47;;;10.60;99.90;;;;;;4980489;28;20830;-80
2022/05/12 03:27:50;;;;;;;794.63;721.53;;;10.50;99.90;;;;;;4984443;28;20451;-80
2022/05/12 03:30:20;;;;;;;792.67;717.50;;;10.50;99.90;;;;;;4984329;28;20469;-80
2022/05/12 03:32:47;;;;;;;789.77;710.87;;;10.40;99.90;;;;;;4980326;28;20981;-79
2022/05/12 03:35:14;;;;;;;807.67;725.47;;;10.40;99.90;;;;;;4976834;28;20538;-79
2022/05/12 03:37:42;;;;;;;812.93;730.90;;;10.40;99.90;;;;;;4976747;28;20490;-78
2022/05/12 03:40:12;;;;;;;812.40;730.03;;;10.40;99.90;;;;;;4977683;28;20455;-79
2022/05/12 03:42:39;;;;;;;797.30;719.07;;;10.30;99.90;;;;;;4979740;28;20458;-79
2022/05/12 03:45:06;;;;;;;788.70;712.33;;;10.20;99.90;;;;;;4978959;28;20490;-79
2022/05/12 03:47:35;;;;;;;789.03;713.37;;;10.10;99.90;;;;;;4977155;28;20479;-80
2022/05/12 03:50:05;;;;;;;785.57;708.30;;;10.00;99.90;;;;;;4983216;28;20834;-80
2022/05/12 03:52:32;;;;;;;780.70;704.20;;;9.90;99.90;;;;;;4996782;28;20458;-78
2022/05/12 03:55:00;;;;;;;781.77;704.30;;;9.90;99.90;;;;;;4982756;28;20474;-81
2022/05/12 03:57:29;;;;;;;778.57;699.33;;;9.80;99.90;;;;;;4998947;28;20485;-78
2022/05/12 03:59:57;;;;;;;779.63;699.27;;;9.80;99.90;;;;;;4959866;29;20451;-80
2022/05/12 04:02:24;;;;;;;776.87;695.73;;;9.80;99.90;;;;;;4986614;28;20450;-79
2022/05/12 04:04:51;;;;;;;789.47;707.37;;;9.90;99.90;;;;;;4994571;28;20478;-81
2022/05/12 04:07:21;;;;;;;784.50;704.20;;;9.80;99.90;;;;;;4989143;28;20449;-81
2022/05/12 04:09:48;;;;;;;783.33;702.27;;;9.90;99.90;;;;;;4981153;28;20451;-80
2022/05/12 04:12:15;;;;;;;807.87;727.47;;;10.10;99.90;;;;;;4984951;28;20462;-79
2022/05/12 04:14:44;;;;;;;790.60;710.50;;;10.00;99.90;;;;;;5000779;28;20708;-79
2022/05/12 04:17:15;;;;;;;809.90;728.30;;;10.00;99.90;;;;;;4984156;28;20479;-79
2022/05/12 04:19:43;;;;;;;804.43;723.40;;;10.10;99.90;;;;;;4992054;28;20474;-79
2022/05/12 04:22:10;;;;;;;772.67;693.77;;;10.10;99.90;;;;;;4983584;28;20835;-79
2022/05/12 04:24:36;;;;;;;782.07;704.43;;;10.10;99.90;;;;;;4980978;28;20832;-80
2022/05/12 04:27:03;;;;;;;780.37;703.13;;;10.00;99.90;;;;;;4997714;28;20450;-80
2022/05/12 04:29:30;;;;;;;795.37;715.57;;;10.00;99.90;;;;;;4996206;28;20450;-80
2022/05/12 04:31:58;;;;;;;777.80;701.53;;;10.20;99.90;;;;;;4996952;28;20454;-80
2022/05/12 04:37:09;;;;;;;784.00;707.07;;;10.60;99.90;;;;;;4976250;28;20573;-80
2022/05/12 04:39:37;;;;;;;782.97;705.77;;;10.70;99.90;;;;;;4985360;28;20463;-80
2022/05/12 04:42:04;;;;;;;796.03;718.77;;;10.80;99.90;;;;;;4993572;28;20460;-80
2022/05/12 04:44:31;;;;;;;796.87;720.47;;;10.80;99.90;;;;;;4986919;28;20482;-80
2022/05/12 04:46:59;;;;;;;801.17;723.17;;;10.90;99.90;;;;;;4976332;28;20477;-80
2022/05/12 04:49:26;;;;;;;794.47;720.67;;;11.00;99.90;;;;;;4980002;28;20465;-80
2022/05/12 04:51:54;;;;;;;781.37;709.07;;;11.10;99.90;;;;;;4979478;28;20538;-80
2022/05/12 04:54:21;;;;;;;771.83;701.43;;;11.20;99.90;;;;;;4978315;28;20475;-77
2022/05/12 04:56:48;;;;;;;771.03;702.23;;;11.30;99.90;;;;;;4977764;28;20483;-80
2022/05/12 04:59:14;;;;;;;752.50;685.90;;;11.30;99.90;;;;;;4981955;28;20461;-78
2022/05/12 05:01:41;;;;;;;742.27;679.70;;;11.40;99.90;;;;;;4983947;28;20843;-78
2022/05/12 05:04:09;;;;;;;735.10;674.50;;;11.50;99.90;;;;;;4977414;28;20474;-78
2022/05/12 05:06:36;;;;;;;732.73;674.03;;;11.50;99.90;;;;;;4992611;28;20477;-78
2022/05/12 05:09:05;;;;;;;719.67;662.10;;;11.60;99.90;;;;;;4975672;28;20458;-78
2022/05/12 05:11:33;;;;;;;714.37;659.17;;;11.60;99.90;;;;;;4960967;28;20454;-77
2022/05/12 05:14:00;;;;;;;719.53;666.87;;;11.70;99.90;;;;;;4987826;28;20864;-77
2022/05/12 05:16:27;;;;;;;705.63;655.63;;;11.70;99.90;;;;;;4974863;28;20482;-77
2022/05/12 05:18:53;;;;;;;721.73;672.40;;;11.80;99.90;;;;;;4991839;28;20843;-78
2022/05/12 05:21:21;;;;;;;712.77;667.07;;;11.90;99.90;;;;;;4990316;28;20854;-81
2022/05/12 05:23:48;;;;;;;694.47;656.07;;;12.00;99.90;;;;;;4971016;28;20459;-78
2022/05/12 05:26:15;;;;;;;551.77;526.90;;;12.20;99.90;;;;;;4973125;28;20467;-78
2022/05/12 05:28:41;;;;;;;308.97;298.63;;;12.60;99.90;;;;;;4975374;28;20546;-81
2022/05/12 05:31:08;;;;;;;43.97;41.77;;;13.00;99.90;;;;;;4984937;28;20458;-81
2022/05/12 05:33:35;;;;;;;10.33;9.33;;;13.40;99.90;;;;;;4980679;28;20840;-81
2022/05/12 05:36:02;;;;;;;7.43;4.03;;;13.70;99.90;;;;;;4988640;28;20461;-80
2022/05/12 05:38:30;;;;;;;6.47;3.00;;;14.10;99.90;;;;;;4988020;28;20459;-81
2022/05/12 05:40:57;;;;;;;7.20;2.17;;;14.40;93.60;;;;;;4979791;28;20461;-82
2022/05/12 05:43:26;;;;;;;6.67;2.70;;;14.70;91.70;;;;;;4987383;28;20458;-82
2022/05/12 05:45:53;;;;;;;7.13;3.23;;;14.90;88.00;;;;;;5003697;23;20490;-88
2022/05/12 05:48:20;;;;;;;6.37;2.23;;;15.10;81.60;;;;;;4991569;28;20480;-88
2022/05/12 05:53:36;;;;;;;12.93;2.30;;;15.50;74.10;;;;;;4991136;28;20543;-86
2022/05/12 05:56:06;;;;;;;18.67;3.80;;;15.60;72.40;;;;;;5005617;28;20554;-87
2022/05/12 05:58:34;;;;;;;7.50;2.57;;;15.80;70.70;;;;;;5009120;28;20458;-83
2022/05/12 06:01:01;;;;;;;7.07;2.30;;;16.00;70.30;;;;;;5011164;28;20454;-85
2022/05/12 06:03:27;;;;;;;6.30;2.50;;;16.30;66.70;;;;;;5011114;28;20466;-85
2022/05/12 06:05:55;;;;;;;6.60;2.57;;;16.40;64.00;;;;;;5012954;28;20474;-85
2022/05/12 06:08:22;;;;;;;8.87;3.57;;;16.70;66.60;;;;;;5014661;28;20451;-85
2022/05/12 06:10:50;;;;;;;8.33;3.83;;;16.70;61.50;;;;;;5013907;28;20457;-83
2022/05/12 06:13:17;;;;;;;8.60;3.30;;;16.70;63.70;;;;;;5012212;28;20456;-85
2022/05/12 06:15:44;;;;;;;9.17;3.90;;;16.70;63.00;;;;;;5015066;28;20475;-85
2022/05/12 06:18:13;;;;;;;7.23;3.80;;;16.90;64.30;;;;;;5014572;28;20476;-87
2022/05/12 06:20:41;;;;;;;14.60;4.80;;;17.00;63.20;;;;;;5014332;28;20454;-85
2022/05/12 06:23:08;;;;;;;9.20;5.27;;;17.00;63.40;;;;;;5013740;28;20450;-86
2022/05/12 06:25:35;;;;;;;10.70;6.10;;;16.90;65.50;;;;;;5013260;28;20468;-85
2022/05/12 06:28:04;;;;;;;16.67;5.50;;;17.30;64.40;;;;;;5014981;28;20467;-84
2022/05/12 06:30:31;;;;;;;12.90;6.30;;;17.20;59.30;;;;;;5007995;28;20456;-86
2022/05/12 06:32:59;;;;;;;14.83;7.00;;;17.20;62.20;;;;;;5016311;28;20457;-85
2022/05/12 06:35:27;;;;;;;14.93;7.27;;;17.20;63.90;;;;;;5014147;28;20478;-87
2022/05/12 06:37:54;;;;;;;13.53;8.03;;;17.30;62.20;;;;;;5012866;28;20850;-85
2022/05/12 06:40:21;;;;;;;12.90;7.03;;;17.50;62.00;;;;;;5013265;28;20468;-85
2022/05/12 06:42:48;;;;;;;12.53;5.60;;;17.70;58.40;;;;;;5013665;28;20458;-85
2022/05/12 06:45:19;;;;;;;14.47;6.40;;;17.70;51.10;;;;;;5014799;28;20487;-85
2022/05/12 06:47:48;;;;;;;17.43;6.93;;;17.90;54.70;;;;;;5014111;28;20951;-84
2022/05/12 06:50:15;;;;;;;13.43;6.77;;;18.00;54.30;;;;;;5013458;28;20463;-85
2022/05/12 06:52:43;;;;;;;9.70;5.40;;;18.00;49.10;;;;;;5019001;28;20551;-87
2022/05/12 06:55:10;;;;;;;9.70;4.47;;;18.10;51.40;;;;;;5016566;28;20470;-85
2022/05/12 06:57:37;;;;;;;11.97;6.47;;;18.20;51.50;;;;;;5018599;28;20479;-86
2022/05/12 07:00:06;;;;;;;10.50;6.20;;;18.20;49.30;;;;;;5013237;28;20460;-87
2022/05/12 07:02:34;;;;;;;11.40;6.13;;;18.40;48.30;;;;;;5014948;28;21010;-85
2022/05/12 07:05:01;;;;;;;16.40;5.83;;;18.40;48.00;;;;;;5015468;28;21137;-85
2022/05/12 07:07:28;;;;;;;14.80;5.10;;;18.40;47.80;;;;;;5016174;28;20454;-84
2022/05/12 07:09:55;;;;;;;13.00;6.03;;;18.50;45.60;;;;;;5015192;28;20491;-85
2022/05/12 07:12:23;;;;;;;14.80;5.50;;;18.60;46.20;;;;;;5014852;28;20455;-85
2022/05/12 07:14:51;;;;;;;16.00;4.73;;;18.60;44.90;;;;;;5014414;28;20476;-85
2022/05/12 07:17:20;;;;;;;11.27;5.37;;;18.10;42.60;;;;;;5014650;28;20604;-84
2022/05/12 07:19:48;;;;;;;10.00;4.70;;;17.50;39.80;;;;;;5014697;28;20450;-86
2022/05/12 07:27:43;;;;;;;7.10;4.27;;;18.10;41.30;;;;;;5014197;28;20488;-88
2022/05/12 07:30:11;;;;;;;10.33;5.43;;;18.20;40.20;;;;;;5013208;28;20462;-88
2022/05/12 07:32:38;;;;;;;14.40;4.80;;;18.00;41.80;;;;;;5000668;28;20457;-83
2022/05/12 07:35:08;;;;;;;8.80;4.37;;;18.30;40.00;;;;;;5017170;28;20477;-81
2022/05/12 07:37:37;;;;;;;9.77;4.07;;;18.40;39.80;;;;;;5014231;28;20520;-85
2022/05/12 07:40:05;;;;;;;12.07;4.37;;;18.40;40.60;;;;;;5013835;28;20485;-81
2022/05/12 07:42:31;;;;;;;7.40;3.83;;;18.40;35.60;;;;;;5014325;28;21013;-82
2022/05/12 07:44:58;;;;;;;14.60;4.43;;;18.40;37.30;;;;;;5014670;28;20478;-82
2022/05/12 07:47:27;;;;;;;9.40;4.10;;;18.80;42.30;;;;;;5015931;28;20454;-81
2022/05/12 07:49:53;;;;;;;8.07;3.73;;;18.60;38.20;;;;;;5016040;28;20461;-83
2022/05/12 07:52:22;;;;;;;8.97;3.90;;;18.40;33.80;;;;;;5016056;28;20465;-81
2022/05/12 07:54:49;;;;;;;10.23;4.07;;;18.30;35.50;;;;;;5015979;28;20473;-83
2022/05/12 07:57:17;;;;;;;8.30;4.20;;;18.30;37.20;;;;;;5016754;28;20492;-82
2022/05/12 07:59:44;;;;;;;7.50;3.40;;;18.40;33.80;;;;;;5015956;28;20998;-83
2022/05/12 08:02:15;;;;;;;8.60;3.73;;;18.60;33.50;;;;;;5015555;28;20541;-82
2022/05/12 08:04:42;;;;;;;94.23;20.23;;;19.00;34.30;;;;;;5015362;28;20480;-82
2022/05/12 08:07:08;;;;;;;27.50;7.50;;;19.60;31.20;;;;;;5015117;28;20461;-82
2022/05/12 08:09:36;;;;;;;9.37;4.70;;;19.50;26.70;;;;;;5014111;28;20457;-81
2022/05/12 08:12:04;;;;;;;12.13;4.87;;;19.90;28.20;;;;;;5013935;28;20462;-82
2022/05/12 08:14:31;;;;;;;6.87;3.77;;;20.00;27.80;;;;;;5012935;28;20480;-82
2022/05/12 08:16:57;;;;;;;8.30;4.13;;;20.60;27.80;;;;;;5013870;28;20462;-82
2022/05/12 08:19:24;;;;;;;13.10;6.10;;;20.60;27.40;;;;;;5012314;28;20461;-82
2022/05/12 08:21:51;;;;;;;8.40;4.87;;;20.70;26.10;;;;;;5014741;28;20451;-87
2022/05/12 08:24:18;;;;;;;8.87;5.00;;;21.20;24.50;;;;;;5014305;28;21027;-82
2022/05/12 08:26:46;;;;;;;9.20;4.33;;;21.20;21.30;;;;;;5013660;28;20459;-80
2022/05/12 08:29:13;;;;;;;9.20;4.00;;;21.40;19.50;;;;;;5013432;28;20453;-84
2022/05/12 08:31:39;;;;;;;7.47;4.03;;;21.80;21.00;;;;;;5014369;28;20838;-86
2022/05/12 08:34:06;;;;;;;8.80;3.70;;;22.00;18.70;;;;;;5014572;28;20450;-85
2022/05/12 08:36:33;;;;;;;7.00;3.30;;;22.10;14.60;;;;;;5014369;28;20455;-86
2022/05/12 08:39:00;;;;;;;17.03;3.80;;;22.30;15.30;;;;;;5011866;28;20480;-85
2022/05/12 08:41:44;;;;;;;7.90;4.17;;;22.50;14.00;;;;;;5012991;28;20465;-85
2022/05/12 08:44:16;;;;;;;7.73;3.40;;;22.70;14.20;;;;;;5015237;28;20449;-83
2022/05/12 08:46:47;;;;;;;7.60;3.67;;;22.00;11.20;;;;;;5013088;28;20483;-87
2022/05/12 08:49:27;;;;;;;9.23;4.30;;;22.20;13.80;;;;;;5012517;28;20439;-85
2022/05/12 08:52:00;;;;;;;7.43;3.43;;;22.10;13.70;;;;;;5012952;28;20458;-86
2022/05/12 08:54:27;;;;;;;8.40;4.43;;;22.70;13.20;;;;;;5013923;28;20925;-86
2022/05/12 08:57:00;;;;;;;6.60;3.57;;;23.30;13.10;;;;;;5013809;28;20449;-87
2022/05/12 08:59:30;;;;;;;9.83;3.50;;;23.60;14.50;;;;;;5012717;28;20504;-87
2022/05/12 09:02:08;;;;;;;10.90;3.47;;;23.40;6.90;;;;;;5014080;28;20452;-88
2022/05/12 09:04:51;;;;;;;6.20;2.73;;;22.90;7.40;;;;;;5012703;28;20480;-86
2022/05/12 09:07:27;;;;;;;8.60;3.60;;;22.90;6.60;;;;;;5013060;28;20448;-86
2022/05/12 09:10:02;;;;;;;8.93;3.10;;;23.20;8.20;;;;;;5012219;28;20452;-85
2022/05/12 09:12:36;;;;;;;8.47;2.90;;;23.40;7.00;;;;;;5012558;28;20458;-85
2022/05/12 09:15:06;;;;;;;6.97;3.37;;;22.70;6.50;;;;;;5001443;28;20464;-85
2022/05/12 09:17:42;;;;;;;6.60;2.70;;;23.10;8.00;;;;;;5012504;28;20473;-86
2022/05/12 09:20:11;;;;;;;6.00;2.40;;;22.90;6.60;;;;;;5010355;28;21015;-85
2022/05/12 09:22:39;;;;;;;6.17;2.40;;;22.80;6.60;;;;;;5012039;28;20431;-86
2022/05/12 09:25:07;;;;;;;6.87;3.10;;;23.00;5.40;;;;;;5011872;28;20472;-86
2022/05/12 09:27:36;;;;;;;4.70;1.80;;;22.60;2.80;;;;;;5011899;28;20449;-86
2022/05/12 09:30:06;;;;;;;8.40;2.20;;;23.10;4.00;;;;;;5010821;28;20460;-86
2022/05/12 09:32:35;;;;;;;4.30;1.57;;;23.50;3.00;;;;;;5012478;28;20449;-87
2022/05/12 09:35:19;;;;;;;7.17;2.70;;;23.90;1.00;;;;;;5012540;28;21111;-86
2022/05/12 09:37:46;;;;;;;6.00;2.30;;;23.90;1.00;;;;;;5013048;28;20472;-87
2022/05/12 09:40:23;;;;;;;6.20;2.00;;;24.40;1.00;;;;;;5016054;28;20453;-87
2022/05/12 09:42:51;;;;;;;9.17;2.50;;;24.60;1.00;;;;;;5017321;28;20460;-85
2022/05/12 09:45:27;;;;;;;7.50;2.40;;;25.00;1.00;;;;;;5015944;28;20488;-86
2022/05/12 09:48:17;;;;;;;5.77;1.40;;;25.30;1.00;;;;;;5018850;28;20444;-86
2022/05/12 09:50:44;;;;;;;6.33;1.50;;;24.50;1.00;;;;;;5015843;28;20503;-86
2022/05/12 09:53:13;;;;;;;6.20;2.00;;;23.30;1.00;;;;;;5015580;28;20456;-86
2022/05/12 09:55:43;;;;;;;8.63;2.90;;;23.30;1.00;;;;;;5014951;28;20468;-86
2022/05/12 09:58:29;;;;;;;6.43;2.80;;;23.80;1.00;;;;;;5015571;28;20828;-86
2022/05/12 10:01:13;;;;;;;5.77;2.27;;;23.70;1.00;;;;;;5016497;28;20440;-87
2022/05/12 10:09:16;;;;;;;10.43;2.47;;;23.50;1.00;;;;;;5015920;28;20793;-85
2022/05/12 10:11:50;;;;;;;6.20;2.40;;;23.40;1.00;;;;;;5015440;28;20945;-85
2022/05/12 10:14:25;;;;;;;6.60;2.40;;;23.40;1.00;;;;;;5012945;28;20454;-84
2022/05/12 10:16:56;;;;;;;11.10;4.00;;;23.00;1.00;;;;;;5015744;28;20415;-85
2022/05/12 10:19:24;;;;;;;6.73;2.30;;;21.80;1.00;;;;;;5013905;28;20523;-84
2022/05/12 10:21:57;;;;;;;5.93;2.17;;;21.90;1.00;;;;;;5015592;28;20464;-87
2022/05/12 10:24:33;;;;;;;5.53;2.37;;;22.20;1.00;;;;;;5020868;28;20498;-86
2022/05/12 10:27:08;;;;;;;5.40;1.83;;;22.80;1.00;;;;;;5013515;28;20539;-86
2022/05/12 10:29:45;;;;;;;5.90;2.30;;;23.50;1.00;;;;;;5012466;28;20980;-87
2022/05/12 10:32:27;;;;;;;7.57;2.07;;;22.90;1.00;;;;;;5012148;28;20467;-88
2022/05/12 10:35:04;;;;;;;7.30;1.70;;;23.40;1.00;;;;;;5014250;28;20548;-87
2022/05/12 10:37:42;;;;;;;5.83;1.77;;;24.30;1.00;;;;;;5014076;28;20746;-86
2022/05/12 10:40:25;;;;;;;4.90;1.70;;;24.60;1.00;;;;;;5012493;28;20457;-85
2022/05/12 10:42:59;;;;;;;4.63;1.60;;;25.50;1.00;;;;;;5014902;28;20449;-85
2022/05/12 10:45:32;;;;;;;5.40;2.23;;;25.30;1.00;;;;;;5016212;28;20483;-85
2022/05/12 10:48:23;;;;;;;5.27;1.73;;;25.40;1.00;;;;;;5016603;28;20480;-84
2022/05/12 10:50:57;;;;;;;5.20;1.97;;;25.10;1.00;;;;;;5019362;28;20438;-83
2022/05/12 10:53:41;;;;;;;5.93;1.83;;;25.40;1.00;;;;;;5019430;28;20453;-84
2022/05/12 10:56:19;;;;;;;6.80;2.30;;;25.10;1.00;;;;;;5000403;28;20473;-83
2022/05/12 10:58:54;;;;;;;6.63;2.20;;;25.10;1.00;;;;;;5002783;28;20489;-83
2022/05/12 11:01:26;;;;;;;9.70;2.80;;;25.20;1.00;;;;;;5011014;28;20449;-83
2022/05/12 11:04:00;;;;;;;5.80;2.10;;;24.90;1.00;;;;;;5021174;28;20438;-84
2022/05/12 11:06:32;;;;;;;5.93;2.57;;;25.10;1.00;;;;;;5016855;28;20837;-86
2022/05/12 11:09:06;;;;;;;6.40;2.57;;;25.70;1.00;;;;;;5016824;28;20820;-85
2022/05/12 11:11:38;;;;;;;10.30;2.67;;;26.10;1.00;;;;;;5016449;28;20461;-85
2022/05/12 11:14:09;;;;;;;12.40;3.90;;;24.60;1.00;;;;;;5008741;28;20457;-85
2022/05/12 11:16:43;;;;;;;5.80;2.30;;;24.20;1.00;;;;;;5014326;28;20475;-85
2022/05/12 11:19:17;;;;;;;9.90;3.27;;;23.90;1.00;;;;;;5003469;28;20926;-87
2022/05/12 11:21:55;;;;;;;5.10;2.60;;;23.20;1.00;;;;;;4998530;28;20458;-87
2022/05/12 11:24:31;;;;;;;5.50;2.20;;;22.90;1.00;;;;;;4998648;28;20493;-86
2022/05/12 11:27:07;;;;;;;8.83;2.20;;;23.30;1.00;;;;;;5011364;28;20671;-87
2022/05/12 11:29:44;;;;;;;7.57;2.40;;;23.60;1.00;;;;;;5016601;28;20444;-88
2022/05/12 11:32:23;;;;;;;5.73;2.10;;;24.30;1.00;;;;;;5016639;28;20835;-87
2022/05/12 11:34:55;;;;;;;5.20;2.10;;;25.60;1.00;;;;;;5015797;28;20465;-87
2022/05/12 11:37:32;;;;;;;10.00;2.17;;;26.70;1.00;;;;;;5015395;28;20830;-86
2022/05/12 11:40:02;;;;;;;7.43;1.90;;;26.40;1.00;;;;;;5009902;28;20881;-85
2022/05/12 11:44:23;;;;;;;5.50;2.07;;;25.50;1.00;;;;;;5017910;28;20457;-85
2022/05/12 11:49:20;;;;;;;4.77;1.80;;;24.70;1.00;;;;;;4990002;28;20470;-83
2022/05/12 11:52:45;;;;;;;7.80;2.07;;;24.80;1.00;;;;;;5001491;28;20806;-82
2022/05/12 11:55:24;;;;;;;5.67;2.00;;;25.90;1.00;;;;;;4940568;29;20540;-83
2022/05/12 11:58:07;;;;;;;7.83;1.60;;;26.10;1.00;;;;;;4973186;28;20458;-83
2022/05/12 12:00:57;;;;;;;5.57;1.87;;;26.30;1.00;;;;;;4970775;28;20510;-83
2022/05/12 12:03:55;;;;;;;6.50;2.37;;;26.00;1.00;;;;;;4980054;28;20447;-83
2022/05/12 12:06:54;;;;;;;5.63;1.97;;;26.30;1.00;;;;;;4980828;28;20922;-83
2022/05/12 12:09:46;;;;;;;7.13;2.07;;;25.60;1.00;;;;;;4980112;28;20596;-84
2022/05/12 12:12:55;;;;;;;5.67;1.80;;;24.70;1.00;;;;;;4983709;28;20848;-83
2022/05/12 12:16:04;;;;;;;7.70;2.50;;;23.80;1.00;;;;;;4983138;28;20478;-83
2022/05/12 12:18:57;;;;;;;7.10;1.70;;;23.60;1.00;;;;;;4982038;28;20447;-83
2022/05/12 12:21:47;;;;;;;5.73;2.57;;;24.50;1.00;;;;;;4983469;28;20454;-83
2022/05/12 12:24:36;;;;;;;6.93;2.07;;;24.30;1.00;;;;;;4975689;28;20462;-87
2022/05/12 12:27:20;;;;;;;7.90;2.70;;;23.70;1.00;;;;;;4975292;28;20835;-86
2022/05/12 12:29:49;;;;;;;5.33;2.30;;;24.70;1.00;;;;;;4975137;28;20478;-85
2022/05/12 12:32:29;;;;;;;8.27;2.40;;;25.80;1.00;;;;;;4974088;28;20562;-84
2022/05/12 12:35:06;;;;;;;6.03;2.33;;;25.40;1.00;;;;;;4974599;28;20474;-86
2022/05/12 12:37:45;;;;;;;5.77;2.70;;;25.60;1.00;;;;;;4974489;28;20457;-86
2022/05/12 12:40:43;;;;;;;7.27;2.50;;;26.90;1.00;;;;;;4974909;28;20461;-85
2022/05/12 12:43:20;;;;;;;12.77;2.50;;;27.60;1.00;;;;;;4974896;28;20451;-85
2022/05/12 12:45:51;;;;;;;5.60;2.67;;;27.50;1.00;;;;;;4972162;28;20482;-86
2022/05/12 12:48:21;;;;;;;6.60;2.60;;;27.00;1.00;;;;;;4974825;28;20462;-85
2022/05/12 12:50:51;;;;;;;8.73;2.30;;;25.50;1.00;;;;;;4972140;28;20978;-85
2022/05/12 12:56:31;;;;;;;8.33;2.77;;;24.60;1.00;;;;;;4973096;28;20451;-85
2022/05/12 12:58:59;;;;;;;6.83;2.60;;;24.20;1.00;;;;;;4971207;28;20451;-85
2022/05/12 13:01:38;;;;;;;8.23;3.80;;;24.00;1.00;;;;;;4974433;28;20458;-86
2022/05/12 13:04:09;;;;;;;7.83;2.60;;;23.90;1.00;;;;;;4974287;28;20454;-85
2022/05/12 13:06:38;;;;;;;5.97;2.83;;;24.60;1.00;;;;;;4972074;28;20471;-85
2022/05/12 13:09:07;;;;;;;5.67;2.77;;;24.90;1.00;;;;;;4974912;28;20482;-85
2022/05/12 13:11:36;;;;;;;7.77;2.90;;;25.00;1.00;;;;;;4973879;28;20451;-85